createdAt,value
2023-05-11T00:00:38.878Z,100659.25
2023-05-11T00:03:06.244Z,100658.19
2023-05-11T00:05:32.759Z,100660.50
2023-05-11T00:07:59.096Z,100669.06
2023-05-11T00:10:25.473Z,100662.19
2023-05-11T00:12:51.858Z,100652.34
2023-05-11T00:15:18.295Z,100649.63
2023-05-11T00:17:45.298Z,100646.31
2023-05-11T00:20:11.736Z,100650.06
2023-05-11T00:22:39.094Z,100647.56
2023-05-11T00:25:06.368Z,100651.31
2023-05-11T00:27:32.825Z,100644.63
2023-05-11T00:29:59.154Z,100648.81
2023-05-11T00:32:25.496Z,100646.69
2023-05-11T00:34:51.907Z,100642.94
2023-05-11T00:37:18.221Z,100643.59
2023-05-11T00:39:44.544Z,100647.72
2023-05-11T00:42:11.380Z,100652.34
2023-05-11T00:44:37.746Z,100650.84
2023-05-11T00:47:04.657Z,100644.56
2023-05-11T00:49:31.236Z,100650.84
2023-05-11T00:51:57.814Z,100642.06
2023-05-11T00:54:24.688Z,100646.44
2023-05-11T00:56:51.859Z,100644.78
2023-05-11T00:59:18.876Z,100647.47
2023-05-11T01:01:45.510Z,100642.06
2023-05-11T01:04:12.171Z,100643.94
2023-05-11T01:06:51.696Z,100650.19
2023-05-11T01:09:32.143Z,100648.53
2023-05-11T01:12:13.471Z,100642.66
2023-05-11T01:15:04.727Z,100655.41
2023-05-11T01:17:42.686Z,100648.31
2023-05-11T01:20:16.968Z,100643.91
2023-05-11T01:23:10.885Z,100647.69
2023-05-11T01:25:55.440Z,100650.41
2023-05-11T01:29:03.584Z,100655.00
2023-05-11T01:31:34.397Z,100647.88
2023-05-11T01:34:06.323Z,100650.81
2023-05-11T01:36:35.986Z,100649.97
2023-05-11T01:39:08.033Z,100650.16
2023-05-11T01:41:38.446Z,100659.13
2023-05-11T01:44:08.589Z,100649.53
2023-05-11T01:46:35.151Z,100650.59
2023-05-11T01:49:07.414Z,100652.25
2023-05-11T01:51:39.927Z,100654.31
2023-05-11T01:54:08.486Z,100650.78
2023-05-11T01:56:36.811Z,100653.72
2023-05-11T01:59:04.051Z,100658.28
2023-05-11T02:01:32.141Z,100654.09
2023-05-11T02:04:00.888Z,100660.56
2023-05-11T02:06:30.550Z,100661.41
2023-05-11T02:08:59.413Z,100657.22
2023-05-11T02:11:27.974Z,100663.69
2023-05-11T02:13:58.318Z,100664.53
2023-05-11T02:16:26.028Z,100663.06
2023-05-11T02:18:54.103Z,100669.53
2023-05-11T02:21:20.812Z,100673.28
2023-05-11T02:23:49.652Z,100669.09
2023-05-11T02:26:16.695Z,100672.03
2023-05-11T02:28:43.881Z,100671.38
2023-05-11T02:31:16.357Z,100663.66
2023-05-11T02:33:48.901Z,100664.69
2023-05-11T02:36:21.253Z,100668.66
2023-05-11T02:38:49.010Z,100662.78
2023-05-11T02:41:22.157Z,100677.38
2023-05-11T02:43:52.390Z,100679.47
2023-05-11T02:46:26.185Z,100672.38
2023-05-11T02:48:57.634Z,100674.44
2023-05-11T02:51:30.812Z,100683.59
2023-05-11T02:53:59.214Z,100677.56
2023-05-11T02:56:25.917Z,100685.88
2023-05-11T02:58:52.492Z,100677.13
2023-05-11T03:01:19.794Z,100679.00
2023-05-11T03:03:46.408Z,100675.44
2023-05-11T03:06:13.069Z,100685.47
2023-05-11T03:08:41.822Z,100670.22
2023-05-11T03:11:09.261Z,100679.41
2023-05-11T03:13:36.026Z,100687.53
2023-05-11T03:16:02.849Z,100684.00
2023-05-11T03:18:31.092Z,100684.81
2023-05-11T03:21:00.326Z,100676.88
2023-05-11T03:23:27.217Z,100684.19
2023-05-11T03:25:54.825Z,100679.59
2023-05-11T03:28:22.733Z,100685.22
2023-05-11T03:30:50.468Z,100688.78
2023-05-11T03:33:16.808Z,100682.53
2023-05-11T03:35:44.449Z,100683.53
2023-05-11T03:38:12.679Z,100673.75
2023-05-11T03:40:41.686Z,100679.34
2023-05-11T03:43:11.260Z,100677.88
2023-05-11T03:45:39.410Z,100676.63
2023-05-11T03:48:06.766Z,100681.41
2023-05-11T03:50:34.070Z,100677.44
2023-05-11T03:53:00.897Z,100681.16
2023-05-11T03:55:27.641Z,100677.81
2023-05-11T03:57:54.072Z,100680.50
2023-05-11T04:00:20.688Z,100680.50
2023-05-11T04:02:47.313Z,100675.09
2023-05-11T04:05:13.911Z,100684.09
2023-05-11T04:07:40.300Z,100684.91
2023-05-11T04:10:07.401Z,100679.50
2023-05-11T04:12:34.048Z,100674.91
2023-05-11T04:15:00.476Z,100673.84
2023-05-11T04:17:26.854Z,100670.97
2023-05-11T04:19:53.248Z,100671.59
2023-05-11T04:22:19.632Z,100674.97
2023-05-11T04:24:45.960Z,100672.88
2023-05-11T04:27:12.321Z,100678.94
2023-05-11T04:29:38.658Z,100676.88
2023-05-11T04:32:05.083Z,100674.16
2023-05-11T04:34:31.492Z,100674.78
2023-05-11T04:36:57.823Z,100681.03
2023-05-11T04:39:24.164Z,100680.81
2023-05-11T04:41:50.497Z,100676.47
2023-05-11T04:44:16.803Z,100688.97
2023-05-11T04:46:43.221Z,100684.19
2023-05-11T04:49:09.582Z,100685.88
2023-05-11T04:51:36.104Z,100682.75
2023-05-11T04:54:02.480Z,100687.13
2023-05-11T04:56:28.822Z,100683.38
2023-05-11T04:58:55.170Z,100691.13
2023-05-11T05:01:21.625Z,100691.13
2023-05-11T05:03:49.250Z,100698.03
2023-05-11T05:06:15.599Z,100687.78
2023-05-11T05:08:42.063Z,100696.56
2023-05-11T05:11:08.465Z,100695.13
2023-05-11T05:13:34.795Z,100694.91
2023-05-11T05:16:01.278Z,100697.22
2023-05-11T05:18:27.740Z,100703.91
2023-05-11T05:20:54.217Z,100700.16
2023-05-11T05:23:20.656Z,100699.78
2023-05-11T05:25:47.209Z,100700.19
2023-05-11T05:28:13.600Z,100702.50
2023-05-11T05:30:40.112Z,100710.03
2023-05-11T05:33:06.611Z,100710.28
2023-05-11T05:35:33.048Z,100714.22
2023-05-11T05:37:59.423Z,100720.53
2023-05-11T05:40:25.816Z,100708.84
2023-05-11T05:42:52.459Z,100714.34
2023-05-11T05:45:18.805Z,100723.53
2023-05-11T05:47:45.256Z,100719.78
2023-05-11T05:50:11.888Z,100721.66
2023-05-11T05:52:38.256Z,100725.25
2023-05-11T05:55:04.981Z,100735.28
2023-05-11T05:57:31.390Z,100735.50
2023-05-11T05:59:57.837Z,100725.66
2023-05-11T06:02:24.319Z,100733.00
2023-05-11T06:04:50.952Z,100730.28
2023-05-11T06:07:17.308Z,100733.03
2023-05-11T06:09:43.689Z,100736.97
2023-05-11T06:12:10.303Z,100735.53
2023-05-11T06:14:36.788Z,100743.88
2023-05-11T06:17:03.291Z,100737.19
2023-05-11T06:19:29.626Z,100743.03
2023-05-11T06:21:55.973Z,100739.28
2023-05-11T06:24:22.396Z,100746.38
2023-05-11T06:26:48.752Z,100741.78
2023-05-11T06:29:15.222Z,100742.22
2023-05-11T06:31:41.616Z,100750.78
2023-05-11T06:34:09.311Z,100746.38
2023-05-11T06:36:54.348Z,100755.59
2023-05-11T06:39:20.715Z,100752.25
2023-05-11T06:41:47.019Z,100746.38
2023-05-11T06:44:13.511Z,100744.88
2023-05-11T06:46:39.908Z,100752.41
2023-05-11T06:49:07.812Z,100750.06
2023-05-11T06:51:34.352Z,100744.41
2023-05-11T06:54:00.941Z,100749.53
2023-05-11T06:56:28.003Z,100757.44
2023-05-11T06:58:54.835Z,100755.50
2023-05-11T07:01:21.211Z,100750.03
2023-05-11T07:03:49.093Z,100755.81
2023-05-11T07:06:15.489Z,100761.63
2023-05-11T07:08:42.161Z,100755.72
2023-05-11T07:11:08.577Z,100763.34
2023-05-11T07:13:34.907Z,100771.63
2023-05-11T07:16:01.389Z,100769.69
2023-05-11T07:18:27.752Z,100772.19
2023-05-11T07:20:54.085Z,100773.56
2023-05-11T07:23:20.474Z,100779.16
2023-05-11T07:25:46.810Z,100778.34
2023-05-11T07:28:13.121Z,100770.84
2023-05-11T07:30:39.488Z,100772.19
2023-05-11T07:33:06.687Z,100778.88
2023-05-11T07:35:33.139Z,100777.25
2023-05-11T07:37:59.534Z,100776.66
2023-05-11T07:40:25.937Z,100770.44
2023-05-11T07:42:52.292Z,100771.31
2023-05-11T07:45:18.729Z,100771.16
2023-05-11T07:47:45.372Z,100758.50
2023-05-11T07:50:12.666Z,100767.09
2023-05-11T07:52:39.440Z,100767.59
2023-05-11T07:55:06.350Z,100771.78
2023-05-11T07:57:32.687Z,100752.63
2023-05-11T07:59:59.029Z,100758.50
2023-05-11T08:02:25.470Z,100766.50
2023-05-11T08:04:51.855Z,100766.31
2023-05-11T08:07:18.249Z,100764.47
2023-05-11T08:09:44.571Z,100763.44
2023-05-11T08:12:10.957Z,100763.25
2023-05-11T08:14:37.841Z,100763.66
2023-05-11T08:17:04.189Z,100769.75
2023-05-11T08:19:30.601Z,100768.72
2023-05-11T08:21:56.937Z,100772.44
2023-05-11T08:24:23.309Z,100777.25
2023-05-11T08:26:49.788Z,100771.22
2023-05-11T08:29:16.136Z,100775.78
2023-05-11T08:31:42.696Z,100767.84
2023-05-11T08:34:18.438Z,100773.28
2023-05-11T08:36:46.746Z,100765.97
2023-05-11T08:39:13.119Z,100772.88
2023-05-11T08:41:39.528Z,100771.63
2023-05-11T08:44:06.761Z,100770.78
2023-05-11T08:46:35.586Z,100772.47
2023-05-11T08:49:02.038Z,100774.16
2023-05-11T08:51:28.789Z,100776.91
2023-05-11T08:53:57.538Z,100775.44
2023-05-11T08:56:25.957Z,100769.56
2023-05-11T08:58:56.479Z,100773.75
2023-05-11T09:01:23.685Z,100778.16
2023-05-11T09:03:51.683Z,100777.94
2023-05-11T09:06:18.550Z,100788.41
2023-05-11T09:08:45.841Z,100779.84
2023-05-11T09:11:12.636Z,100782.97
2023-05-11T09:13:39.286Z,100783.19
2023-05-11T09:16:11.300Z,100781.09
2023-05-11T09:18:52.544Z,100785.94
2023-05-11T09:21:19.802Z,100775.91
2023-05-11T09:23:49.884Z,100785.72
2023-05-11T09:26:28.322Z,100783.84
2023-05-11T09:31:42.769Z,100784.25
2023-05-11T09:34:20.414Z,100782.59
2023-05-11T09:36:48.731Z,100780.50
2023-05-11T09:39:29.277Z,100773.78
2023-05-11T09:42:19.494Z,100777.78
2023-05-11T09:44:46.780Z,100777.56
2023-05-11T09:47:22.819Z,100786.78
2023-05-11T09:49:49.207Z,100787.41
2023-05-11T09:52:18.116Z,100786.75
2023-05-11T09:54:51.186Z,100779.84
2023-05-11T09:57:25.624Z,100775.03
2023-05-11T09:59:52.819Z,100782.97
2023-05-11T10:02:30.414Z,100774.00
2023-05-11T10:04:59.321Z,100778.78
2023-05-11T10:07:27.798Z,100783.84
2023-05-11T10:09:56.250Z,100769.59
2023-05-11T10:12:25.558Z,100780.47
2023-05-11T10:14:56.279Z,100778.81
2023-05-11T10:17:23.019Z,100784.44
2023-05-11T10:19:50.099Z,100776.28
2023-05-11T10:22:19.651Z,100781.72
2023-05-11T10:24:46.795Z,100775.28
2023-05-11T10:27:13.447Z,100766.06
2023-05-11T10:29:39.983Z,100771.06
2023-05-11T10:32:07.950Z,100769.19
2023-05-11T10:34:34.377Z,100767.06
2023-05-11T10:37:01.704Z,100763.28
2023-05-11T10:39:29.978Z,100768.50
2023-05-11T10:42:12.831Z,100764.31
2023-05-11T10:45:05.790Z,100770.78
2023-05-11T10:48:06.681Z,100761.75
2023-05-11T10:50:52.115Z,100768.66
2023-05-11T10:53:21.382Z,100767.56
2023-05-11T10:56:07.226Z,100767.16
2023-05-11T10:59:07.557Z,100764.81
2023-05-11T11:01:40.903Z,100773.56
2023-05-11T11:04:14.209Z,100770.19
2023-05-11T11:06:43.593Z,100771.03
2023-05-11T11:09:15.609Z,100769.56
2023-05-11T11:11:46.863Z,100774.81
2023-05-11T11:14:17.926Z,100777.97
2023-05-11T11:17:15.253Z,100774.63
2023-05-11T11:19:42.407Z,100776.28
2023-05-11T11:22:34.280Z,100781.72
2023-05-11T11:25:08.216Z,100785.25
2023-05-11T11:27:40.852Z,100778.50
2023-05-11T11:30:30.573Z,100782.41
2023-05-11T11:33:06.891Z,100790.13
2023-05-11T11:35:39.380Z,100779.41
2023-05-11T11:38:13.455Z,100780.84
2023-05-11T11:43:19.864Z,100789.22
2023-05-11T11:45:56.114Z,100788.00
2023-05-11T11:48:33.209Z,100789.72
2023-05-11T11:51:08.458Z,100785.97
2023-05-11T11:53:38.209Z,100789.38
2023-05-11T11:56:05.818Z,100795.66
2023-05-11T11:58:41.567Z,100798.00
2023-05-11T12:01:08.790Z,100794.88
2023-05-11T12:03:39.888Z,100791.09
2023-05-11T12:06:08.942Z,100790.03
2023-05-11T12:08:36.949Z,100791.28
2023-05-11T12:11:05.877Z,100786.84
2023-05-11T12:13:33.448Z,100787.22
2023-05-11T12:16:10.380Z,100789.53
2023-05-11T12:18:36.844Z,100789.75
2023-05-11T12:21:03.402Z,100795.41
2023-05-11T12:23:30.454Z,100794.56
2023-05-11T12:26:06.912Z,100788.91
2023-05-11T12:28:33.585Z,100784.31
2023-05-11T12:31:00.849Z,100791.22
2023-05-11T12:33:27.517Z,100782.81
2023-05-11T12:35:55.849Z,100793.91
2023-05-11T12:38:22.391Z,100790.13
2023-05-11T12:40:53.257Z,100779.59
2023-05-11T12:43:21.486Z,100785.69
2023-05-11T12:45:48.696Z,100781.28
2023-05-11T12:48:15.742Z,100781.72
2023-05-11T12:50:46.855Z,100783.84
2023-05-11T12:53:15.002Z,100771.69
2023-05-11T12:55:41.899Z,100779.25
2023-05-11T12:58:15.957Z,100772.75
2023-05-11T13:00:57.508Z,100768.53
2023-05-11T13:03:28.809Z,100768.72
2023-05-11T13:06:08.074Z,100767.84
2023-05-11T13:08:39.191Z,100765.28
2023-05-11T13:11:22.809Z,100769.03
2023-05-11T13:13:49.921Z,100766.88
2023-05-11T13:16:26.368Z,100770.66
2023-05-11T13:19:04.207Z,100768.13
2023-05-11T13:21:33.101Z,100759.72
2023-05-11T13:24:00.444Z,100769.97
2023-05-11T13:26:30.352Z,100756.69
2023-05-11T13:29:09.274Z,100762.78
2023-05-11T13:31:44.729Z,100768.03
2023-05-11T13:34:11.778Z,100768.44
2023-05-11T13:36:38.747Z,100761.53
2023-05-11T13:39:05.602Z,100759.06
2023-05-11T13:41:32.277Z,100760.94
2023-05-11T13:43:58.656Z,100758.22
2023-05-11T13:46:25.088Z,100759.25
2023-05-11T13:48:51.588Z,100759.25
2023-05-11T13:51:20.315Z,100750.25
2023-05-11T13:53:46.961Z,100749.63
2023-05-11T13:56:13.742Z,100753.44
2023-05-11T13:58:40.146Z,100746.53
2023-05-11T14:01:08.597Z,100753.88
2023-05-11T14:03:35.355Z,100749.88
2023-05-11T14:06:02.983Z,100743.22
2023-05-11T14:08:29.442Z,100746.81
2023-05-11T14:10:55.982Z,100747.31
2023-05-11T14:13:22.423Z,100744.41
2023-05-11T14:15:48.780Z,100749.69
2023-05-11T14:18:15.239Z,100746.34
2023-05-11T14:20:42.389Z,100741.09
2023-05-11T14:23:08.936Z,100742.19
2023-05-11T14:25:36.328Z,100743.25
2023-05-11T14:28:03.186Z,100747.00
2023-05-11T14:30:29.621Z,100743.66
2023-05-11T14:32:56.195Z,100742.19
2023-05-11T14:35:22.598Z,100745.81
2023-05-11T14:37:49.154Z,100740.19
2023-05-11T14:40:15.484Z,100742.97
2023-05-11T14:42:42.658Z,100745.50
2023-05-11T14:45:09.598Z,100743.88
2023-05-11T14:47:36.078Z,100741.16
2023-05-11T14:50:02.829Z,100740.09
2023-05-11T14:52:29.169Z,100737.00
2023-05-11T14:54:55.510Z,100740.75
2023-05-11T14:57:22.208Z,100745.38
2023-05-11T14:59:58.970Z,100742.88
2023-05-11T15:02:26.296Z,100736.81
2023-05-11T15:04:52.755Z,100739.97
2023-05-11T15:07:19.096Z,100738.72
2023-05-11T15:09:45.459Z,100739.34
2023-05-11T15:12:11.791Z,100742.94
2023-05-11T15:14:38.118Z,100751.34
2023-05-11T15:17:04.574Z,100754.06
2023-05-11T15:19:31.087Z,100751.56
2023-05-11T15:21:57.399Z,100750.78
2023-05-11T15:24:23.809Z,100752.44
2023-05-11T15:26:50.278Z,100755.81
2023-05-11T15:29:16.720Z,100748.09
2023-05-11T15:31:43.304Z,100749.13
2023-05-11T15:34:10.030Z,100753.72
2023-05-11T15:36:36.363Z,100748.09
2023-05-11T15:39:02.810Z,100749.75
2023-05-11T15:41:29.226Z,100760.00
2023-05-11T15:43:55.562Z,100763.75
2023-05-11T15:46:22.491Z,100749.94
2023-05-11T15:48:49.077Z,100760.81
2023-05-11T15:51:15.568Z,100758.31
2023-05-11T15:53:41.950Z,100758.31
2023-05-11T15:56:09.460Z,100757.66
2023-05-11T15:58:38.134Z,100771.91
2023-05-11T16:01:04.675Z,100759.56
2023-05-11T16:03:31.350Z,100764.56
2023-05-11T16:05:57.839Z,100768.75
2023-05-11T16:08:24.236Z,100764.59
2023-05-11T16:10:51.623Z,100760.19
2023-05-11T16:13:18.006Z,100760.81
2023-05-11T16:15:44.376Z,100753.91
2023-05-11T16:18:10.750Z,100753.06
2023-05-11T16:20:37.790Z,100753.72
2023-05-11T16:23:04.265Z,100752.44
2023-05-11T16:25:30.649Z,100755.59
2023-05-11T16:27:57.392Z,100754.31
2023-05-11T16:30:25.276Z,100752.88
2023-05-11T16:32:52.218Z,100754.94
2023-05-11T16:35:18.779Z,100756.22
2023-05-11T16:37:46.525Z,100756.63
2023-05-11T16:40:12.969Z,100756.00
2023-05-11T16:42:39.371Z,100752.03
2023-05-11T16:45:06.435Z,100754.34
2023-05-11T16:47:32.871Z,100755.19
2023-05-11T16:49:59.339Z,100752.47
2023-05-11T16:52:25.697Z,100762.50
2023-05-11T16:54:52.009Z,100756.41
2023-05-11T16:57:18.517Z,100750.56
2023-05-11T16:59:44.865Z,100751.19
2023-05-11T17:02:11.282Z,100757.25
2023-05-11T17:04:37.766Z,100753.50
2023-05-11T17:07:04.271Z,100759.56
2023-05-11T17:09:30.935Z,100756.41
2023-05-11T17:11:57.535Z,100752.44
2023-05-11T17:14:23.886Z,100762.69
2023-05-11T17:17:09.181Z,100753.25
2023-05-11T17:19:35.520Z,100761.19
2023-05-11T17:22:02.138Z,100760.78
2023-05-11T17:24:28.944Z,100764.97
2023-05-11T17:26:55.472Z,100756.59
2023-05-11T17:29:29.711Z,100764.31
2023-05-11T17:31:56.234Z,100764.31
2023-05-11T17:34:25.766Z,100767.00
2023-05-11T17:36:54.688Z,100760.09
2023-05-11T17:39:21.299Z,100758.41
2023-05-11T17:41:47.853Z,100761.06
2023-05-11T17:44:14.196Z,100766.47
2023-05-11T17:46:41.839Z,100768.94
2023-05-11T17:49:08.247Z,100764.13
2023-05-11T17:51:34.606Z,100765.53
2023-05-11T17:54:01.103Z,100767.00
2023-05-11T17:56:27.449Z,100770.31
2023-05-11T17:58:53.835Z,100766.78
2023-05-11T18:01:22.395Z,100772.59
2023-05-11T18:03:49.084Z,100777.19
2023-05-11T18:06:16.354Z,100776.34
2023-05-11T18:08:42.742Z,100770.28
2023-05-11T18:11:10.817Z,100778.44
2023-05-11T18:13:37.168Z,100775.06
2023-05-11T18:16:04.008Z,100778.81
2023-05-11T18:18:30.576Z,100778.19
2023-05-11T18:20:57.423Z,100779.63
2023-05-11T18:23:24.097Z,100777.97
2023-05-11T18:25:50.443Z,100780.03
2023-05-11T18:28:16.761Z,100783.78
2023-05-11T18:30:43.141Z,100793.78
2023-05-11T18:33:09.478Z,100784.16
2023-05-11T18:35:36.044Z,100788.09
2023-05-11T18:38:04.567Z,100784.97
2023-05-11T18:40:30.978Z,100785.56
2023-05-11T18:42:57.385Z,100777.00
2023-05-11T18:45:23.821Z,100787.41
2023-05-11T18:47:51.360Z,100795.06
2023-05-11T18:50:18.027Z,100798.59
2023-05-11T18:52:44.745Z,100802.94
2023-05-11T18:55:14.052Z,100795.38
2023-05-11T18:57:40.522Z,100800.53
2023-05-11T19:00:07.937Z,100808.41
2023-05-11T19:02:34.578Z,100810.00
2023-05-11T19:05:01.220Z,100807.22
2023-05-11T19:07:28.017Z,100807.00
2023-05-11T19:09:54.681Z,100807.59
2023-05-11T19:12:21.042Z,100806.50
2023-05-11T19:14:47.688Z,100800.59
2023-05-11T19:17:14.089Z,100803.69
2023-05-11T19:19:40.624Z,100804.09
2023-05-11T19:22:09.061Z,100806.97
2023-05-11T19:24:35.789Z,100816.16
2023-05-11T19:27:07.085Z,100816.31
2023-05-11T19:29:34.256Z,100822.59
2023-05-11T19:32:00.797Z,100824.66
2023-05-11T19:34:27.256Z,100815.72
2023-05-11T19:36:53.599Z,100823.19
2023-05-11T19:39:19.950Z,100822.53
2023-05-11T19:41:46.295Z,100824.41
2023-05-11T19:44:12.694Z,100829.16
2023-05-11T19:46:45.500Z,100818.50
2023-05-11T19:49:13.530Z,100823.09
2023-05-11T19:51:39.892Z,100826.84
2023-05-11T19:54:06.305Z,100818.06
2023-05-11T19:56:35.512Z,100814.53
2023-05-11T19:59:04.867Z,100813.69
2023-05-11T20:01:31.443Z,100817.41
2023-05-11T20:03:58.204Z,100812.00
2023-05-11T20:06:26.437Z,100820.31
2023-05-11T20:08:54.348Z,100814.91
2023-05-11T20:11:22.277Z,100816.97
2023-05-11T20:13:49.411Z,100831.16
2023-05-11T20:16:16.466Z,100831.16
2023-05-11T20:18:43.613Z,100820.31
2023-05-11T20:21:11.393Z,100824.91
2023-05-11T20:23:39.386Z,100813.22
2023-05-11T20:26:07.177Z,100817.16
2023-05-11T20:28:33.829Z,100812.94
2023-05-11T20:31:00.561Z,100822.28
2023-05-11T20:35:57.542Z,100816.81
2023-05-11T20:38:23.927Z,100820.75
2023-05-11T20:40:50.294Z,100811.97
2023-05-11T20:43:16.707Z,100814.03
2023-05-11T20:45:43.649Z,100813.41
2023-05-11T20:48:10.715Z,100805.28
2023-05-11T20:50:37.175Z,100806.28
2023-05-11T20:53:03.625Z,100810.22
2023-05-11T20:55:30.078Z,100811.25
2023-05-11T20:57:57.442Z,100806.00
2023-05-11T21:00:24.148Z,100803.31
2023-05-11T21:02:50.783Z,100804.16
2023-05-11T21:05:17.372Z,100808.72
2023-05-11T21:07:43.745Z,100802.47
2023-05-11T21:10:12.443Z,100795.41
2023-05-11T21:12:39.042Z,100795.56
2023-05-11T21:15:06.999Z,100806.41
2023-05-11T21:17:33.614Z,100811.16
2023-05-11T21:20:00.048Z,100805.75
2023-05-11T21:22:26.368Z,100805.75
2023-05-11T21:24:52.940Z,100811.16
2023-05-11T21:27:19.278Z,100808.44
2023-05-11T21:29:45.581Z,100805.75
2023-05-11T21:32:12.035Z,100816.78
2023-05-11T21:34:38.485Z,100816.78
2023-05-11T21:37:04.848Z,100810.31
2023-05-11T21:39:31.256Z,100810.53
2023-05-11T21:41:57.586Z,100809.50
2023-05-11T21:44:23.940Z,100810.53
2023-05-11T21:46:50.691Z,100816.56
2023-05-11T21:49:17.231Z,100811.16
2023-05-11T21:51:43.680Z,100810.16
2023-05-11T21:54:10.148Z,100821.81
2023-05-11T21:56:36.832Z,100817.22
2023-05-11T21:59:03.264Z,100819.75
2023-05-11T22:01:29.664Z,100816.84
2023-05-11T22:03:56.102Z,100810.41
2023-05-11T22:06:22.493Z,100817.50
2023-05-11T22:08:48.820Z,100822.91
2023-05-11T22:11:15.186Z,100827.47
2023-05-11T22:13:41.588Z,100829.34
2023-05-11T22:16:07.984Z,100831.03
2023-05-11T22:18:34.472Z,100823.94
2023-05-11T22:21:00.852Z,100829.16
2023-05-11T22:23:27.203Z,100830.84
2023-05-11T22:25:53.780Z,100833.34
2023-05-11T22:28:20.144Z,100831.28
2023-05-11T22:30:46.542Z,100838.38
2023-05-11T22:33:12.963Z,100838.19
2023-05-11T22:35:39.857Z,100834.44
2023-05-11T22:38:06.322Z,100827.19
2023-05-11T22:40:32.628Z,100839.69
2023-05-11T22:42:58.973Z,100838.66
2023-05-11T22:45:25.448Z,100835.94
2023-05-11T22:47:51.967Z,100832.22
2023-05-11T22:50:18.679Z,100838.47
2023-05-11T22:52:45.180Z,100833.06
2023-05-11T22:55:11.695Z,100829.50
2023-05-11T22:57:38.077Z,100833.22
2023-05-11T23:00:05.473Z,100829.69
2023-05-11T23:02:33.294Z,100825.97
2023-05-11T23:04:59.735Z,100830.34
2023-05-11T23:07:26.126Z,100823.91
2023-05-11T23:09:52.894Z,100831.84
2023-05-11T23:12:19.619Z,100834.53
2023-05-11T23:14:45.998Z,100830.19
2023-05-11T23:17:12.913Z,100841.00
2023-05-11T23:19:39.419Z,100832.22
2023-05-11T23:22:05.904Z,100826.81
2023-05-11T23:24:32.313Z,100828.84
2023-05-11T23:26:58.830Z,100822.63
2023-05-11T23:29:26.859Z,100828.22
2023-05-11T23:31:53.515Z,100823.84
2023-05-11T23:34:19.908Z,100816.72
2023-05-11T23:36:46.582Z,100825.06
2023-05-11T23:39:13.097Z,100830.63
2023-05-11T23:41:39.547Z,100822.72
2023-05-11T23:44:05.994Z,100822.91
2023-05-11T23:46:32.542Z,100817.50
2023-05-11T23:48:58.901Z,100817.03
2023-05-11T23:51:26.108Z,100814.50
2023-05-11T23:53:52.688Z,100808.44
2023-05-11T23:56:19.003Z,100820.97
2023-05-11T23:58:46.113Z,100817.78
